Meknès, Morocco

8:26 AM WEST on August 31, 2015 (GMT +0100)
Saiss | | Change Station
CLOSE
Current Station
Airport
Location: Fes-Sais,
Elevation: 1900 ft
Nearby Weather Stations

Elev 1900 ft 33.93 °N, 4.97 °W | Updated 23 minutes ago

Mostly Cloudy
Mostly Cloudy
70 °F
Feels Like 70 °F
N
8
Wind Variable Wind from West

Today
High -- | Low -- °F
--% Chance of Precip.
Yesterday
High -- | Low -- °F
Precip. -- in
6:54 AM 7:49 PM
Waning Gibbous, 96% visible
Pressure 30.06 in
Visibility -9999.0 miles
Clouds Mostly Cloudy 1000 ft
Dew Point 68 °F
Humidity 94%
Rainfall 0.00 in
Snow Depth Not available.
UV 0 out of 12
Pollen Not available.
Air Quality Not available.
Flu Activity Not available.
METAR GMFF 310703Z 26007KT 230V290 3300 BR BKN010 21/20 Q1018 NOSIG M2
Pressure 30.06 in
Visibility -9999.0 miles
Clouds Mostly Cloudy 1000 ft
Dew Point 68 °F
Humidity 94%
Rainfall 0.00 in
Snow Depth Not available.
UV 0 out of 12
Pollen Not available.
Air Quality Not available.
Flu Activity Not available.
METAR GMFF 310703Z 26007KT 230V290 3300 BR BKN010 21/20 Q1018 NOSIG M2

10-Day Weather Forecast

×

Almanac

Astronomy

Aug. 31, 2015 Rise Set
Actual Time
Civil Twilight
Nautical Twilight
Astronomical Twilight
Moon
Length of Visible Light
Length of Day
Tomorrow will be .
, % of the Moon is Illuminated

Today's Extremes

Country Highs Country Lows

Community

WunderPhotos

Upload Photos

1,851,220 photos uploaded!

WunderBlogs® & News

Nearby

Air Quality

  Air Quality AQ Index Pollutant
Not available.

Snow Depth

Station Depth Elevation

Earthquake Activity

City Distance Mag. Time & Date
Minimum magnitude displayed is 2.5.

Coastal Water Temperatures

Place Temperature

Stations

Nearby Weather Stations

Station Location Temp. Windchill Dew Point Humidity Wind Precip. Elev Updated Type